Aérodrome :
LOGIN :

S'inscrire | Disclaimer

   EN    FR    IT 

 










Légende :    VFR   VFR Marginal   IFR   IFR Intensif   IFR Très Intensif
Visi : 
Plafond : 
>= 8 km
>= 3000ft
5 à 8 km
1000 à 3000 ft
1500m à 5 km
500 à 1000 ft
800 à 1500m
200 à 500 ft
< 800m
< 200 ft
Symboles :   Orages  Brouillard  Fortes neiges  Fortes précipitations  Vent > 20 kt
SIGMETs :   Divers  Orages  Givrage  Turbulence  Onde Orograph.  Cendres Volcan.






- Altitude de l'aérodrome : 24 ft
- Code IATA : IBZ


LEIB - Ibiza

DERNIER METAR :
  • 270230Z AUTO VRB01KT CAVOK 08/05 Q1020

METARs EXPIRÉS :
  • 270200Z AUTO VRB02KT CAVOK 08/04 Q1020
  • 270130Z AUTO VRB02KT CAVOK 08/04 Q1020
  • 270100Z AUTO 33003KT 290V010 CAVOK 09/04 Q1020
  • 270030Z AUTO 02003KT 330V060 CAVOK 10/05 Q1021
  • 270000Z AUTO 03003KT 360V080 CAVOK 10/06 Q1020
  • 262330Z AUTO VRB02KT CAVOK 09/07 Q1020

TAF TAF LEIB
Valide du 26 à 21h jusqu'au 27 à 21h UTC


262000Z 2621/2721 30008KT 9999 FEW016 TX17/2712Z TN06/2706Z
BECMG 2709/2711 22012KT



MET'MAP, la Météo Aéronautique d'un coup d'oeil ! - Copyright ORBIFLY Décembre 2007 - Disclaimer

ORBIFLY MET'MAP TEAM :

Programmation & Développement : Alexandra Zaïnal
Sur une idée originale de : Baudouin d'Aumeries
Assistance à la programmation : Marc-Olivier Méhu
Soutien technique & logistique : Manuel Goepfert

Contact : metmap@orbifly.com




SOURCES & CREDITS :

   NOAA